createdAt,value
2023-04-21T00:01:32.595Z,14.45
2023-04-21T00:04:01.409Z,15.52
2023-04-21T00:11:55.111Z,16.45
2023-04-21T00:14:29.147Z,15.17
2023-04-21T00:17:00.859Z,16.42
2023-04-21T00:19:29.986Z,15.02
2023-04-21T00:21:59.777Z,17.40
2023-04-21T00:24:29.342Z,17.92
2023-04-21T00:26:56.758Z,19.08
2023-04-21T00:29:24.090Z,16.52
2023-04-21T00:31:58.613Z,18.20
2023-04-21T00:34:31.734Z,18.65
2023-04-21T00:37:05.746Z,16.03
2023-04-21T00:41:59.300Z,16.50
2023-04-21T00:44:33.814Z,19.95
2023-04-21T00:47:08.591Z,19.30
2023-04-21T00:49:43.014Z,19.38
2023-04-21T00:52:16.653Z,19.07
2023-04-21T00:54:45.917Z,20.50
2023-04-21T00:57:13.015Z,20.95
2023-04-21T00:59:39.970Z,19.48
2023-04-21T01:02:07.188Z,20.50
2023-04-21T01:04:39.184Z,21.92
2023-04-21T01:07:12.590Z,19.17
2023-04-21T01:09:39.976Z,20.33
2023-04-21T01:12:11.406Z,19.63
2023-04-21T01:14:39.768Z,20.63
2023-04-21T01:17:08.115Z,18.90
2023-04-21T01:19:41.882Z,22.73
2023-04-21T01:22:12.982Z,18.55
2023-04-21T01:24:49.337Z,19.60
2023-04-21T01:27:18.985Z,18.58
2023-04-21T01:29:55.654Z,18.77
2023-04-21T01:32:28.198Z,19.20
2023-04-21T01:34:55.828Z,19.75
2023-04-21T01:37:26.526Z,20.95
2023-04-21T01:39:56.511Z,25.33
2023-04-21T01:42:31.397Z,23.00
2023-04-21T01:44:58.466Z,20.13
2023-04-21T01:47:37.579Z,22.08
2023-04-21T01:50:04.969Z,22.30
2023-04-21T01:52:39.704Z,22.50
2023-04-21T01:55:07.232Z,19.13
2023-04-21T01:57:34.488Z,21.13
2023-04-21T02:00:05.704Z,24.35
2023-04-21T02:02:33.183Z,24.75
2023-04-21T02:05:00.516Z,22.50
2023-04-21T02:07:34.215Z,22.40
2023-04-21T02:10:01.146Z,23.25
2023-04-21T02:12:27.978Z,22.55
2023-04-21T02:15:02.626Z,22.05
2023-04-21T02:17:30.000Z,23.73
2023-04-21T02:20:02.010Z,24.98
2023-04-21T02:24:58.107Z,20.90
2023-04-21T02:27:25.111Z,22.95
2023-04-21T02:29:58.714Z,22.40
2023-04-21T02:32:26.409Z,20.55
2023-04-21T02:34:55.633Z,25.05
2023-04-21T02:37:22.620Z,24.35
2023-04-21T02:39:49.499Z,27.75
2023-04-21T02:42:16.865Z,24.05
2023-04-21T02:44:44.214Z,25.08
2023-04-21T02:47:11.055Z,23.60
2023-04-21T02:49:44.153Z,27.67
2023-04-21T02:52:11.190Z,26.33
2023-04-21T02:54:38.565Z,26.38
2023-04-21T02:57:05.407Z,23.42
2023-04-21T02:59:32.269Z,27.00
2023-04-21T03:01:59.078Z,27.38
2023-04-21T03:04:34.585Z,27.90
2023-04-21T03:07:02.041Z,25.55
2023-04-21T03:09:28.842Z,30.48
2023-04-21T03:11:55.687Z,26.63
2023-04-21T03:14:22.467Z,25.17
2023-04-21T03:16:49.779Z,26.05
